createdAt,value
2022-11-22T00:00:13.368Z,3.65
2022-11-22T00:02:41.487Z,3.64
2022-11-22T00:05:16.703Z,3.56
2022-11-22T00:07:49.580Z,3.69
2022-11-22T00:10:18.070Z,3.67
2022-11-22T00:12:46.593Z,3.46
2022-11-22T00:15:16.353Z,3.58
2022-11-22T00:17:45.279Z,3.52
2022-11-22T00:20:14.191Z,3.51
2022-11-22T00:22:44.689Z,3.64
2022-11-22T00:25:13.842Z,3.55
2022-11-22T00:27:42.560Z,3.49
2022-11-22T00:30:12.578Z,3.51
2022-11-22T00:32:43.564Z,3.42
2022-11-22T00:35:14.205Z,3.58
2022-11-22T00:37:42.755Z,3.49
2022-11-22T00:40:12.320Z,3.47
2022-11-22T00:42:41.690Z,3.44
2022-11-22T00:45:10.872Z,3.50
2022-11-22T00:47:39.321Z,3.49
2022-11-22T00:50:11.439Z,3.49
2022-11-22T00:52:39.750Z,3.60
2022-11-22T00:55:09.462Z,3.64
2022-11-22T00:57:37.512Z,3.63
2022-11-22T01:00:07.867Z,3.49
2022-11-22T01:02:36.438Z,3.43
2022-11-22T01:05:04.813Z,3.52
2022-11-22T01:07:35.780Z,3.69
2022-11-22T01:10:04.210Z,3.70
2022-11-22T01:12:32.564Z,3.74
2022-11-22T01:15:00.904Z,3.63
2022-11-22T01:17:29.656Z,3.67
2022-11-22T01:19:57.865Z,3.66
2022-11-22T01:22:26.439Z,3.55
2022-11-22T01:24:56.760Z,3.58
2022-11-22T01:27:25.860Z,3.49
2022-11-22T01:29:54.880Z,3.44
2022-11-22T01:32:26.977Z,3.58
2022-11-22T01:34:56.803Z,3.52
2022-11-22T01:37:25.102Z,3.40
2022-11-22T01:39:53.543Z,3.35
2022-11-22T01:42:23.804Z,3.25
2022-11-22T01:44:53.183Z,3.24
2022-11-22T01:47:27.102Z,3.26
2022-11-22T01:50:03.567Z,3.36
2022-11-22T01:52:37.996Z,3.37
2022-11-22T01:55:12.939Z,3.41
2022-11-22T01:57:46.672Z,3.37
2022-11-22T02:00:17.597Z,3.38
2022-11-22T02:02:47.894Z,3.36
2022-11-22T02:05:31.423Z,3.44
2022-11-22T02:08:06.308Z,3.47
2022-11-22T02:10:40.498Z,3.25
2022-11-22T02:13:12.446Z,3.39
2022-11-22T02:15:41.418Z,3.30
2022-11-22T02:18:12.599Z,3.09
2022-11-22T02:20:42.613Z,3.16
2022-11-22T02:23:16.675Z,3.31
2022-11-22T02:25:55.672Z,3.39
2022-11-22T02:28:25.430Z,3.46
2022-11-22T02:30:54.276Z,3.36
2022-11-22T02:33:22.694Z,3.46
2022-11-22T02:35:51.806Z,3.36
2022-11-22T02:38:25.184Z,3.18
2022-11-22T02:41:01.706Z,3.09
2022-11-22T02:43:35.431Z,2.84
2022-11-22T02:46:11.578Z,2.98
2022-11-22T02:48:45.508Z,2.96
2022-11-22T02:51:17.295Z,3.11
2022-11-22T02:53:47.060Z,2.97
2022-11-22T02:56:17.754Z,2.69
2022-11-22T02:58:47.874Z,2.91
2022-11-22T03:01:17.106Z,2.77
2022-11-22T03:03:45.593Z,2.53
2022-11-22T03:06:14.356Z,2.48
2022-11-22T03:08:44.488Z,2.33
2022-11-22T03:11:13.471Z,2.45
2022-11-22T03:13:46.084Z,2.52
2022-11-22T03:16:14.438Z,2.67
2022-11-22T03:18:42.989Z,2.63
2022-11-22T03:21:12.083Z,2.46
2022-11-22T03:23:40.810Z,2.52
2022-11-22T03:26:10.450Z,2.53
2022-11-22T03:28:38.767Z,2.48
2022-11-22T03:31:09.111Z,2.41
2022-11-22T03:33:37.609Z,2.39
2022-11-22T03:36:06.780Z,2.28
2022-11-22T03:38:37.059Z,2.40
2022-11-22T03:41:05.927Z,2.42
2022-11-22T03:43:35.510Z,2.41
2022-11-22T03:46:07.035Z,2.45
2022-11-22T03:48:37.886Z,2.34
2022-11-22T03:51:07.897Z,2.31
2022-11-22T03:53:37.180Z,2.36
2022-11-22T03:56:07.191Z,2.14
2022-11-22T03:58:36.681Z,2.42
2022-11-22T04:01:06.524Z,2.38
2022-11-22T04:03:39.711Z,2.44
2022-11-22T04:06:09.035Z,2.57
2022-11-22T04:08:38.188Z,2.73
2022-11-22T04:11:07.647Z,2.58
2022-11-22T04:13:56.171Z,2.66
2022-11-22T04:16:25.596Z,2.28
2022-11-22T04:19:25.272Z,2.50
2022-11-22T04:21:52.552Z,2.34
2022-11-22T04:24:39.860Z,2.24
2022-11-22T04:27:09.675Z,2.49
2022-11-22T04:29:40.718Z,2.50
2022-11-22T04:32:27.738Z,2.40
2022-11-22T04:34:57.949Z,2.62
2022-11-22T04:37:29.316Z,2.60
2022-11-22T04:39:58.370Z,2.73
2022-11-22T04:42:44.148Z,2.55
2022-11-22T04:45:16.240Z,2.45
2022-11-22T04:48:03.419Z,2.32
2022-11-22T04:50:53.825Z,2.23
2022-11-22T04:53:22.622Z,2.32
2022-11-22T04:55:51.645Z,2.18
2022-11-22T04:58:20.284Z,2.30
2022-11-22T05:00:49.991Z,2.21
2022-11-22T05:03:19.402Z,2.29
2022-11-22T05:05:50.114Z,2.37
2022-11-22T05:08:18.822Z,2.29
2022-11-22T05:10:59.646Z,2.14
2022-11-22T05:13:46.120Z,2.25
2022-11-22T05:16:16.500Z,2.21
2022-11-22T05:18:59.365Z,2.38
2022-11-22T05:21:30.758Z,2.43
2022-11-22T05:23:57.865Z,2.52
2022-11-22T05:26:28.013Z,2.42
2022-11-22T05:28:58.110Z,2.42
2022-11-22T05:31:28.524Z,2.37
2022-11-22T05:33:58.084Z,2.36
2022-11-22T05:36:26.369Z,2.30
2022-11-22T05:38:56.411Z,2.13
2022-11-22T05:41:24.526Z,2.28
2022-11-22T05:43:52.559Z,2.29
2022-11-22T05:46:24.773Z,2.39
2022-11-22T05:48:55.142Z,2.29
2022-11-22T05:51:29.110Z,2.33
2022-11-22T05:54:01.972Z,2.34
2022-11-22T05:56:30.025Z,2.39
2022-11-22T05:58:58.124Z,2.47
2022-11-22T06:01:48.896Z,2.53
2022-11-22T06:07:13.541Z,2.37
2022-11-22T06:09:48.692Z,2.49
2022-11-22T06:15:28.512Z,2.52
2022-11-22T06:21:29.288Z,2.49
2022-11-22T06:36:06.339Z,2.94
2022-11-22T06:41:49.627Z,2.96
2022-11-22T06:44:37.558Z,2.90
2022-11-22T06:51:16.711Z,2.91
2022-11-22T07:11:24.073Z,3.23
2022-11-22T07:16:52.551Z,3.28
2022-11-22T07:19:25.960Z,3.31
2022-11-22T07:21:55.596Z,3.29
2022-11-22T07:24:24.940Z,3.27
2022-11-22T07:27:09.999Z,3.38
2022-11-22T07:29:38.627Z,3.50
2022-11-22T07:51:03.107Z,4.29
2022-11-22T08:20:40.131Z,4.72
2022-11-22T08:29:33.587Z,5.12
2022-11-22T08:32:26.019Z,5.21
2022-11-22T08:54:43.059Z,5.57
2022-11-22T09:19:07.681Z,5.93
2022-11-22T09:24:31.910Z,6.03
2022-11-22T09:27:08.323Z,6.18
2022-11-22T09:45:34.542Z,6.70
2022-11-22T12:08:36.424Z,7.75
2022-11-22T12:11:28.437Z,7.82
2022-11-22T12:14:20.109Z,7.72
2022-11-22T12:20:08.619Z,7.71
2022-11-22T12:29:05.844Z,7.67
2022-11-22T12:34:39.070Z,7.69
2022-11-22T12:37:42.979Z,7.56
2022-11-22T12:40:36.812Z,7.61
2022-11-22T12:58:49.057Z,7.30
2022-11-22T13:01:41.642Z,7.20
2022-11-22T13:04:33.885Z,7.33
2022-11-22T13:07:09.489Z,7.27
2022-11-22T13:09:53.281Z,7.36
2022-11-22T13:25:10.872Z,7.05
2022-11-22T13:30:55.141Z,7.14
2022-11-22T14:10:53.814Z,6.91
2022-11-22T14:14:04.433Z,6.93
2022-11-22T14:34:06.693Z,7.23
2022-11-22T14:36:38.308Z,6.99
2022-11-22T14:42:58.764Z,6.90
2022-11-22T14:48:47.196Z,6.95
2022-11-22T14:51:32.110Z,6.95
2022-11-22T14:54:13.408Z,7.07
2022-11-22T15:10:12.715Z,6.96
2022-11-22T16:13:47.150Z,7.16
2022-11-22T17:02:40.180Z,7.32
2022-11-22T17:05:42.119Z,7.28
2022-11-22T17:24:06.573Z,7.33
2022-11-22T17:26:50.138Z,7.05
2022-11-22T17:29:50.342Z,7.11
2022-11-22T17:35:37.226Z,7.06
2022-11-22T17:38:10.079Z,7.00
2022-11-22T17:41:10.296Z,6.99
2022-11-22T17:47:41.455Z,7.00
2022-11-22T18:28:22.405Z,6.93
2022-11-22T19:04:25.239Z,7.16
2022-11-22T19:06:58.496Z,7.19
2022-11-22T19:09:28.544Z,7.36
2022-11-22T19:11:58.671Z,7.40
2022-11-22T19:14:29.985Z,7.51
2022-11-22T19:17:03.333Z,7.55
2022-11-22T19:23:35.790Z,7.52
2022-11-22T19:26:10.157Z,7.50
2022-11-22T19:28:40.148Z,7.55
2022-11-22T19:31:12.858Z,7.56
2022-11-22T19:33:50.237Z,7.58
2022-11-22T19:36:26.388Z,7.49
2022-11-22T19:39:11.658Z,7.60
2022-11-22T20:20:37.263Z,7.72
2022-11-22T20:23:07.945Z,7.65
2022-11-22T20:25:50.907Z,7.71
2022-11-22T20:28:21.477Z,7.63
2022-11-22T20:30:52.421Z,7.65
2022-11-22T20:33:37.476Z,7.60
2022-11-22T20:40:05.686Z,7.48
2022-11-22T20:48:59.119Z,7.51
2022-11-22T20:54:38.988Z,7.62
2022-11-22T21:00:13.856Z,7.69
2022-11-22T21:03:03.228Z,7.55
2022-11-22T21:11:42.150Z,7.31
2022-11-22T21:23:32.660Z,7.32
2022-11-22T21:26:01.917Z,7.26
2022-11-22T21:28:35.603Z,7.42
2022-11-22T21:31:06.078Z,7.49
2022-11-22T21:33:52.417Z,7.53
2022-11-22T21:36:24.378Z,7.69
2022-11-22T22:27:42.051Z,7.22
2022-11-22T22:39:52.043Z,7.31
2022-11-22T22:42:21.260Z,7.29
2022-11-22T22:44:54.488Z,7.36
2022-11-22T22:47:24.249Z,7.37
2022-11-22T22:49:54.019Z,7.29
2022-11-22T22:52:36.203Z,7.24
2022-11-22T22:55:07.732Z,7.42
2022-11-22T23:06:34.239Z,7.20
2022-11-22T23:09:04.166Z,7.34
2022-11-22T23:11:51.219Z,7.40
2022-11-22T23:14:21.968Z,7.39
2022-11-22T23:16:55.923Z,7.41
2022-11-22T23:19:26.647Z,7.46
2022-11-22T23:21:56.175Z,7.31
2022-11-22T23:24:24.292Z,7.36
2022-11-22T23:26:52.581Z,7.32
2022-11-22T23:29:20.592Z,7.49
2022-11-22T23:31:48.619Z,7.46
2022-11-22T23:34:16.724Z,7.39
2022-11-22T23:36:45.051Z,7.59
2022-11-22T23:39:14.644Z,7.50
2022-11-22T23:41:43.156Z,7.50
2022-11-22T23:44:11.229Z,7.49
2022-11-22T23:46:39.338Z,7.42
2022-11-22T23:49:07.885Z,7.38
2022-11-22T23:51:36.977Z,7.27
2022-11-22T23:54:07.003Z,7.25
2022-11-22T23:56:37.276Z,7.27
2022-11-22T23:59:06.452Z,7.16
